Time;durP1;ratioP1;P1;durP2;ratioP2;P2;SDS_P1;SDS_P2;PMS_P1;PMS_P2;Temp;Humidity;BMP_temperature;BMP_pressure;BME280_temperature;BME280_humidity;BME280_pressure;Samples;Min_cycle;Max_cycle;Signal;HPM_P1;HPM_P2
2023/07/16 00:00:36;;;;;;;4.07;3.70;;;20.20;99.90;;;;;;5044145;28;20177;-69
2023/07/16 00:03:01;;;;;;;4.60;3.20;;;20.30;99.90;;;;;;5030384;28;20198;-68
2023/07/16 00:05:27;;;;;;;3.50;3.20;;;20.20;99.90;;;;;;5035495;28;20177;-68
2023/07/16 00:07:52;;;;;;;3.77;3.47;;;20.10;99.90;;;;;;5035378;28;20212;-68
2023/07/16 00:10:18;;;;;;;3.13;2.60;;;20.10;99.90;;;;;;5030578;28;20213;-68
2023/07/16 00:12:43;;;;;;;3.70;3.30;;;20.00;99.90;;;;;;5022724;28;20241;-68
2023/07/16 00:15:09;;;;;;;3.27;3.00;;;20.10;99.90;;;;;;5034124;28;20183;-68
2023/07/16 00:17:35;;;;;;;6.10;3.37;;;20.00;99.90;;;;;;5022153;28;20177;-68
2023/07/16 00:20:00;;;;;;;3.13;2.60;;;20.10;99.90;;;;;;5021420;28;20175;-68
2023/07/16 00:22:26;;;;;;;2.37;2.27;;;20.10;99.90;;;;;;5028846;28;20561;-69
2023/07/16 00:24:52;;;;;;;2.10;1.90;;;20.00;99.90;;;;;;5030162;28;20200;-67
2023/07/16 00:27:17;;;;;;;2.63;2.43;;;20.00;99.90;;;;;;5030361;28;20183;-68
2023/07/16 00:29:43;;;;;;;2.70;2.37;;;20.10;99.90;;;;;;5030801;28;20433;-68
2023/07/16 00:32:08;;;;;;;3.10;2.80;;;20.10;99.90;;;;;;5024097;28;20270;-68
2023/07/16 00:34:34;;;;;;;3.63;2.57;;;20.10;99.90;;;;;;5030464;28;20174;-68
2023/07/16 00:37:01;;;;;;;3.17;2.70;;;20.20;99.90;;;;;;5026349;28;20207;-68
2023/07/16 00:39:30;;;;;;;4.60;2.87;;;20.20;99.90;;;;;;5022806;28;20170;-68
2023/07/16 00:41:56;;;;;;;4.50;2.53;;;20.20;99.90;;;;;;5029344;28;20968;-67
2023/07/16 00:44:22;;;;;;;3.40;2.67;;;20.20;99.90;;;;;;5030317;28;20429;-68
2023/07/16 00:46:47;;;;;;;3.60;3.20;;;20.10;99.90;;;;;;5025279;28;20448;-68
2023/07/16 00:49:13;;;;;;;4.00;2.70;;;20.10;99.90;;;;;;5029187;28;20174;-68
2023/07/16 00:51:39;;;;;;;3.50;2.20;;;20.10;99.90;;;;;;5025798;28;20479;-68
2023/07/16 00:54:05;;;;;;;2.30;2.20;;;20.10;99.90;;;;;;5030442;28;20638;-68
2023/07/16 00:56:31;;;;;;;2.80;2.17;;;20.00;99.90;;;;;;5027733;28;20559;-68
2023/07/16 00:58:56;;;;;;;2.50;2.30;;;20.00;99.90;;;;;;5016545;28;20207;-68
2023/07/16 01:01:22;;;;;;;2.70;2.00;;;20.00;99.90;;;;;;5027610;28;20467;-69
2023/07/16 01:03:47;;;;;;;3.47;2.50;;;20.00;99.90;;;;;;5029659;28;20666;-68
2023/07/16 01:06:32;;;;;;;2.73;2.53;;;20.10;99.90;;;;;;5026601;28;20182;-68
2023/07/16 01:09:03;;;;;;;2.30;2.10;;;20.00;99.90;;;;;;5031783;28;20200;-68
2023/07/16 01:11:30;;;;;;;2.37;2.00;;;20.00;99.90;;;;;;5029731;28;20436;-68
2023/07/16 01:13:56;;;;;;;2.23;1.80;;;20.00;99.90;;;;;;5025306;28;20523;-68
2023/07/16 01:16:24;;;;;;;2.47;1.97;;;20.00;99.90;;;;;;5028999;28;21156;-68
2023/07/16 01:18:50;;;;;;;3.20;1.50;;;20.00;99.90;;;;;;5015461;28;20434;-68
2023/07/16 01:21:19;;;;;;;2.00;1.80;;;20.00;99.90;;;;;;5027102;28;20429;-68
2023/07/16 01:23:56;;;;;;;2.03;1.67;;;20.00;99.90;;;;;;5028450;28;20471;-68
2023/07/16 01:26:52;;;;;;;2.20;2.00;;;20.00;99.90;;;;;;5024140;28;20437;-68
2023/07/16 01:29:33;;;;;;;2.70;1.80;;;20.10;99.90;;;;;;5034149;28;20814;-68
2023/07/16 01:32:03;;;;;;;2.10;2.00;;;20.20;99.90;;;;;;5029930;28;20457;-68
2023/07/16 01:34:33;;;;;;;2.23;1.97;;;20.20;99.90;;;;;;5024146;28;20803;-68
2023/07/16 01:37:02;;;;;;;1.70;1.40;;;20.10;99.90;;;;;;5026968;28;21004;-68
2023/07/16 01:39:28;;;;;;;1.73;1.60;;;20.10;99.90;;;;;;5025575;28;20501;-68
2023/07/16 01:41:53;;;;;;;2.37;2.17;;;20.10;99.90;;;;;;5024627;28;20460;-69
2023/07/16 01:44:19;;;;;;;3.00;2.00;;;20.10;99.90;;;;;;5026907;28;20230;-68
2023/07/16 01:47:06;;;;;;;2.40;1.73;;;20.00;99.90;;;;;;5029739;28;20182;-67
2023/07/16 01:49:32;;;;;;;2.53;2.03;;;19.80;99.90;;;;;;5028533;28;20319;-68
2023/07/16 01:51:59;;;;;;;2.10;2.00;;;19.80;99.90;;;;;;5024653;28;20468;-68
2023/07/16 01:54:25;;;;;;;2.20;2.00;;;19.80;99.90;;;;;;5026075;28;20437;-68
2023/07/16 01:56:50;;;;;;;4.30;2.20;;;19.80;99.90;;;;;;5029121;28;20972;-68
2023/07/16 01:59:16;;;;;;;3.40;2.10;;;19.80;99.90;;;;;;5018505;28;20231;-68
2023/07/16 02:01:41;;;;;;;1.67;1.57;;;19.70;99.90;;;;;;5028909;28;20226;-68
2023/07/16 02:04:07;;;;;;;3.07;2.57;;;19.70;99.90;;;;;;5028560;28;20194;-68
2023/07/16 02:06:32;;;;;;;3.20;2.70;;;19.70;99.90;;;;;;5033750;28;20273;-68
2023/07/16 02:08:58;;;;;;;3.10;1.97;;;19.70;99.90;;;;;;5022833;28;20187;-69
2023/07/16 02:11:23;;;;;;;2.33;1.87;;;19.70;99.90;;;;;;5026236;28;20214;-68
2023/07/16 02:13:49;;;;;;;1.80;1.70;;;19.70;99.90;;;;;;5027967;28;20261;-68
2023/07/16 02:16:14;;;;;;;2.10;1.90;;;19.70;99.90;;;;;;5025844;28;20673;-68
2023/07/16 02:18:40;;;;;;;3.60;2.13;;;19.70;99.90;;;;;;5012930;28;20186;-68
2023/07/16 02:21:05;;;;;;;2.10;1.90;;;19.70;99.90;;;;;;5020214;28;20195;-69
2023/07/16 02:23:31;;;;;;;2.33;2.20;;;19.70;99.90;;;;;;5028014;28;20622;-68
2023/07/16 02:25:56;;;;;;;2.30;2.10;;;19.70;99.90;;;;;;5028903;28;20673;-68
2023/07/16 02:28:22;;;;;;;4.00;3.60;;;19.70;99.90;;;;;;5028192;28;20281;-68
2023/07/16 02:30:50;;;;;;;3.67;2.43;;;19.70;99.90;;;;;;5024707;28;20626;-68
2023/07/16 02:33:16;;;;;;;2.50;1.80;;;19.70;99.90;;;;;;5030898;28;20708;-68
2023/07/16 02:35:49;;;;;;;2.57;2.37;;;19.70;99.90;;;;;;5021446;28;20449;-68
2023/07/16 02:38:15;;;;;;;4.40;1.63;;;19.70;99.90;;;;;;5019515;28;20180;-68
2023/07/16 02:40:47;;;;;;;2.17;2.00;;;19.70;99.90;;;;;;5012691;28;20803;-68
2023/07/16 02:43:13;;;;;;;1.90;1.80;;;19.60;99.90;;;;;;5010210;28;21057;-69
2023/07/16 02:45:39;;;;;;;2.30;2.10;;;19.50;99.90;;;;;;5020385;28;20437;-68
2023/07/16 02:48:06;;;;;;;2.40;2.20;;;19.50;99.90;;;;;;5023305;28;20473;-68
2023/07/16 02:50:38;;;;;;;2.73;1.87;;;19.40;99.90;;;;;;5028753;28;20186;-68
2023/07/16 02:53:05;;;;;;;2.47;1.90;;;19.40;99.90;;;;;;5027949;28;20457;-68
2023/07/16 02:55:30;;;;;;;2.40;2.30;;;19.30;99.90;;;;;;5021115;28;20509;-68
2023/07/16 02:57:56;;;;;;;2.60;2.20;;;19.20;99.90;;;;;;5018947;28;20445;-69
2023/07/16 03:00:22;;;;;;;3.00;2.03;;;19.10;99.90;;;;;;5024944;28;20181;-68
2023/07/16 03:02:49;;;;;;;4.20;1.87;;;19.00;99.90;;;;;;5025355;28;20198;-68
2023/07/16 03:05:16;;;;;;;2.37;2.17;;;18.90;99.90;;;;;;5028423;28;20213;-67
2023/07/16 03:07:41;;;;;;;4.20;2.30;;;18.90;99.90;;;;;;5027430;28;20513;-68
2023/07/16 03:10:07;;;;;;;2.50;2.10;;;18.90;99.90;;;;;;5025382;28;20437;-68
2023/07/16 03:12:33;;;;;;;3.30;2.10;;;19.00;99.90;;;;;;5026422;28;20267;-68
2023/07/16 03:14:58;;;;;;;4.03;2.70;;;19.00;99.90;;;;;;5025815;28;20187;-68
2023/07/16 03:17:24;;;;;;;3.17;2.63;;;19.00;99.90;;;;;;5018926;28;20225;-68
2023/07/16 03:19:49;;;;;;;3.53;2.07;;;18.90;99.90;;;;;;5023861;28;20178;-68
2023/07/16 03:22:15;;;;;;;3.60;2.03;;;18.90;99.90;;;;;;5019722;28;20229;-68
2023/07/16 03:24:40;;;;;;;2.00;1.90;;;18.90;99.90;;;;;;5026683;28;20182;-68
2023/07/16 03:27:06;;;;;;;5.03;2.40;;;18.80;99.90;;;;;;5027445;28;20612;-68
2023/07/16 03:29:35;;;;;;;2.13;1.93;;;18.70;99.90;;;;;;5027814;28;20274;-68
2023/07/16 03:32:01;;;;;;;5.67;2.57;;;18.80;99.90;;;;;;5027003;28;20456;-68
2023/07/16 03:34:27;;;;;;;3.17;2.30;;;18.80;99.90;;;;;;5027961;28;20440;-68
2023/07/16 03:36:52;;;;;;;2.90;2.30;;;18.70;99.90;;;;;;5026340;28;20835;-68
2023/07/16 03:39:18;;;;;;;3.73;2.23;;;18.60;99.90;;;;;;5029586;28;20192;-68
2023/07/16 03:41:43;;;;;;;4.30;2.33;;;18.50;99.90;;;;;;5023248;28;20199;-68
2023/07/16 03:44:10;;;;;;;2.70;2.10;;;18.50;99.90;;;;;;5022343;28;20179;-68
2023/07/16 03:46:35;;;;;;;3.90;2.50;;;18.40;99.90;;;;;;5030840;28;20291;-68
2023/07/16 03:49:01;;;;;;;6.50;4.43;;;18.50;99.90;;;;;;5030768;28;20436;-68
2023/07/16 03:51:26;;;;;;;2.13;2.03;;;18.40;99.90;;;;;;5030650;28;20235;-68
2023/07/16 03:53:52;;;;;;;3.30;2.60;;;18.50;99.90;;;;;;5030968;28;20614;-68
2023/07/16 03:56:17;;;;;;;2.70;2.50;;;18.40;99.90;;;;;;5025534;28;20218;-68
2023/07/16 03:58:43;;;;;;;2.40;2.20;;;18.30;99.90;;;;;;5025495;28;20265;-68
2023/07/16 04:01:09;;;;;;;4.93;2.87;;;18.20;99.90;;;;;;5025871;28;20691;-68
2023/07/16 04:03:35;;;;;;;3.60;2.30;;;18.20;99.90;;;;;;5027910;28;20544;-67
2023/07/16 04:06:02;;;;;;;2.80;2.33;;;18.20;99.90;;;;;;5027896;28;20271;-68
2023/07/16 04:08:28;;;;;;;2.93;2.37;;;18.30;99.90;;;;;;5029015;28;20205;-68
2023/07/16 04:10:53;;;;;;;4.70;2.37;;;18.30;99.90;;;;;;5030619;28;20432;-68
2023/07/16 04:13:19;;;;;;;3.90;2.47;;;18.30;99.90;;;;;;5030571;27;20573;-68
2023/07/16 04:15:44;;;;;;;2.87;2.67;;;18.40;99.90;;;;;;5025764;28;20202;-68
2023/07/16 04:18:10;;;;;;;2.20;2.00;;;18.40;99.90;;;;;;5023467;28;20179;-68
2023/07/16 04:20:35;;;;;;;6.03;2.50;;;18.50;99.90;;;;;;5030098;28;20254;-68
2023/07/16 04:23:01;;;;;;;2.77;2.57;;;18.40;99.90;;;;;;5020101;28;20198;-68
2023/07/16 04:25:26;;;;;;;7.00;2.27;;;18.50;99.90;;;;;;5025089;28;20178;-68
2023/07/16 04:27:52;;;;;;;2.53;2.33;;;18.50;99.90;;;;;;5029743;28;20202;-68
2023/07/16 04:30:17;;;;;;;4.10;2.60;;;18.60;99.90;;;;;;5037980;27;20689;-68
2023/07/16 04:32:43;;;;;;;4.00;3.00;;;18.50;99.90;;;;;;5030388;28;20303;-68
2023/07/16 04:35:08;;;;;;;3.20;2.90;;;18.40;99.90;;;;;;5030548;28;20214;-68
2023/07/16 04:37:34;;;;;;;6.47;3.30;;;18.40;99.90;;;;;;5020422;28;20209;-68
2023/07/16 04:39:59;;;;;;;3.27;2.97;;;18.50;99.90;;;;;;5026854;28;20638;-68
2023/07/16 04:42:25;;;;;;;2.90;2.70;;;18.40;99.90;;;;;;5028403;28;20221;-68
2023/07/16 04:44:50;;;;;;;2.77;2.57;;;18.50;99.90;;;;;;5023203;28;20183;-66
2023/07/16 04:47:16;;;;;;;3.10;2.80;;;18.60;99.90;;;;;;5027174;28;20185;-67
2023/07/16 04:49:42;;;;;;;3.17;2.70;;;18.50;99.90;;;;;;5029764;28;20185;-66
2023/07/16 04:52:08;;;;;;;2.83;2.10;;;18.60;99.90;;;;;;5029647;28;20623;-66
2023/07/16 04:54:37;;;;;;;4.00;2.10;;;18.70;99.90;;;;;;5028890;28;20456;-66
2023/07/16 04:57:04;;;;;;;3.07;2.77;;;18.80;99.90;;;;;;5029942;28;20213;-69
2023/07/16 04:59:29;;;;;;;2.60;2.00;;;18.70;99.90;;;;;;5023177;28;20517;-66
2023/07/16 05:01:55;;;;;;;10.87;2.87;;;18.70;99.90;;;;;;5027984;28;20902;-68
2023/07/16 05:04:20;;;;;;;2.77;2.57;;;18.70;99.90;;;;;;5026540;27;20183;-67
2023/07/16 05:06:46;;;;;;;4.07;3.77;;;18.70;99.90;;;;;;5026406;28;20214;-65
2023/07/16 05:09:12;;;;;;;4.10;2.50;;;18.70;99.90;;;;;;5028150;28;20213;-65
2023/07/16 05:11:38;;;;;;;2.77;2.57;;;18.60;99.90;;;;;;5030250;28;20585;-67
2023/07/16 05:14:03;;;;;;;6.13;2.67;;;18.70;99.90;;;;;;5026839;28;20174;-67
2023/07/16 05:16:29;;;;;;;3.17;2.87;;;18.80;99.90;;;;;;5028465;28;20512;-66
2023/07/16 05:18:55;;;;;;;3.43;2.37;;;18.80;99.90;;;;;;5029446;28;20282;-66
2023/07/16 05:21:21;;;;;;;4.73;2.23;;;18.80;99.90;;;;;;5027548;28;20183;-66
2023/07/16 05:23:46;;;;;;;5.30;2.50;;;18.80;99.90;;;;;;5024816;28;20447;-68
2023/07/16 05:26:12;;;;;;;3.00;2.80;;;18.70;99.90;;;;;;5017526;28;20175;-68
2023/07/16 05:28:37;;;;;;;2.60;2.40;;;18.70;99.90;;;;;;5029144;28;20178;-68
2023/07/16 05:31:03;;;;;;;5.20;2.97;;;18.70;99.90;;;;;;5025628;28;20182;-68
2023/07/16 05:33:29;;;;;;;4.30;2.77;;;18.70;99.90;;;;;;5029193;28;20214;-68
2023/07/16 05:35:55;;;;;;;5.00;2.57;;;18.80;99.90;;;;;;5026822;28;20716;-68
2023/07/16 05:38:21;;;;;;;3.93;2.63;;;18.70;99.90;;;;;;5028323;28;20584;-68
2023/07/16 05:40:46;;;;;;;6.57;2.63;;;18.60;99.90;;;;;;5025274;28;20437;-68
2023/07/16 05:43:13;;;;;;;5.47;2.70;;;18.60;99.90;;;;;;5029357;28;20198;-68
2023/07/16 05:45:38;;;;;;;2.80;2.40;;;18.70;99.90;;;;;;5020508;28;20374;-68
2023/07/16 05:48:04;;;;;;;6.67;2.33;;;18.90;99.90;;;;;;5017190;28;20441;-68
2023/07/16 05:50:30;;;;;;;4.80;2.27;;;18.90;99.90;;;;;;5021190;28;20698;-68
2023/07/16 05:52:55;;;;;;;3.53;2.47;;;18.90;99.90;;;;;;5051266;27;20218;-70
2023/07/16 05:55:21;;;;;;;5.80;3.00;;;18.90;99.90;;;;;;5021990;28;20227;-68
2023/07/16 05:57:46;;;;;;;2.67;2.47;;;18.90;99.90;;;;;;5028206;28;20189;-68
2023/07/16 06:00:13;;;;;;;2.80;2.50;;;19.00;99.90;;;;;;5028099;28;20179;-68
2023/07/16 06:02:39;;;;;;;8.23;2.90;;;18.90;99.90;;;;;;5028731;28;20194;-68
2023/07/16 06:05:05;;;;;;;6.40;2.20;;;19.00;99.90;;;;;;5026767;28;20521;-68
2023/07/16 06:07:31;;;;;;;3.70;2.40;;;19.10;99.90;;;;;;5020269;28;20179;-68
2023/07/16 06:09:57;;;;;;;6.00;3.23;;;19.20;99.90;;;;;;5022786;28;20444;-68
2023/07/16 06:12:22;;;;;;;7.17;3.83;;;19.30;99.90;;;;;;5023329;28;20814;-68
2023/07/16 06:14:48;;;;;;;3.73;2.63;;;19.40;99.90;;;;;;5028685;28;20497;-68
2023/07/16 06:17:13;;;;;;;4.60;3.50;;;19.10;99.90;;;;;;5027102;28;20622;-69
2023/07/16 06:19:39;;;;;;;3.27;3.03;;;19.10;99.90;;;;;;5027709;28;20178;-68
2023/07/16 06:22:04;;;;;;;7.63;2.97;;;19.10;99.90;;;;;;5023854;28;20202;-68
2023/07/16 06:24:30;;;;;;;10.20;2.90;;;19.10;99.90;;;;;;5023951;28;20640;-68
2023/07/16 06:26:55;;;;;;;5.33;2.90;;;19.20;99.90;;;;;;5028625;28;20175;-68
2023/07/16 06:29:21;;;;;;;5.83;3.20;;;19.30;99.90;;;;;;5024000;28;20189;-68
2023/07/16 06:31:57;;;;;;;6.80;3.17;;;19.40;99.90;;;;;;5028765;28;20214;-68
2023/07/16 06:34:23;;;;;;;6.53;3.30;;;19.40;99.90;;;;;;5024915;28;20705;-68
2023/07/16 06:36:49;;;;;;;3.33;2.53;;;19.40;99.90;;;;;;5026498;28;20462;-68
2023/07/16 06:39:15;;;;;;;4.23;2.60;;;19.50;99.90;;;;;;5023240;28;20449;-68
2023/07/16 06:41:40;;;;;;;5.27;4.87;;;19.50;99.90;;;;;;5024744;28;20265;-68
2023/07/16 06:44:06;;;;;;;4.33;3.47;;;19.50;99.90;;;;;;5021629;28;20633;-68
2023/07/16 06:46:31;;;;;;;2.93;2.63;;;19.70;99.90;;;;;;5027390;28;20182;-68
2023/07/16 06:48:57;;;;;;;6.00;2.77;;;19.90;99.90;;;;;;5022289;28;20640;-68
2023/07/16 06:51:22;;;;;;;3.00;2.57;;;20.00;99.90;;;;;;5028106;28;20611;-68
2023/07/16 06:53:48;;;;;;;6.90;4.10;;;20.10;99.90;;;;;;5028358;28;20265;-68
2023/07/16 06:56:14;;;;;;;3.23;2.90;;;20.30;99.90;;;;;;5025748;28;20263;-68
2023/07/16 06:58:39;;;;;;;4.67;2.33;;;20.40;99.90;;;;;;5024886;28;20206;-68
2023/07/16 07:01:05;;;;;;;3.73;2.70;;;20.50;99.90;;;;;;5027859;28;20536;-68
2023/07/16 07:03:33;;;;;;;3.10;2.20;;;20.70;99.90;;;;;;5027074;28;20213;-68
2023/07/16 07:06:01;;;;;;;2.70;2.40;;;20.70;99.90;;;;;;5027037;28;20738;-68
2023/07/16 07:08:26;;;;;;;3.77;2.40;;;20.50;99.90;;;;;;5016813;28;20471;-69
2023/07/16 07:10:52;;;;;;;3.70;2.50;;;20.70;99.90;;;;;;5022592;28;20441;-69
2023/07/16 07:13:18;;;;;;;2.53;2.30;;;21.00;99.90;;;;;;5023793;28;20209;-68
2023/07/16 07:15:43;;;;;;;6.73;2.87;;;21.10;99.90;;;;;;5027961;28;20198;-68
2023/07/16 07:18:09;;;;;;;5.07;2.70;;;21.20;99.90;;;;;;5021526;28;20182;-68
2023/07/16 07:20:34;;;;;;;7.23;2.70;;;21.60;99.90;;;;;;5026391;28;20190;-68
2023/07/16 07:23:02;;;;;;;4.37;2.17;;;22.00;99.90;;;;;;5022048;28;20272;-69
2023/07/16 07:25:28;;;;;;;4.13;2.30;;;22.30;99.90;;;;;;5026867;28;20182;-68
2023/07/16 07:27:54;;;;;;;3.63;2.53;;;22.40;99.90;;;;;;5030251;28;20811;-69
2023/07/16 07:30:19;;;;;;;6.40;2.40;;;22.60;99.90;;;;;;5019567;28;20651;-68
2023/07/16 07:32:45;;;;;;;3.20;2.57;;;23.10;99.90;;;;;;5028414;28;20203;-69
2023/07/16 07:35:11;;;;;;;11.47;2.90;;;23.10;99.90;;;;;;5025866;28;20194;-72
2023/07/16 07:37:36;;;;;;;4.10;1.97;;;22.80;99.90;;;;;;5027960;28;20206;-68
2023/07/16 07:40:03;;;;;;;3.53;2.70;;;22.40;99.90;;;;;;5029560;28;20242;-67
2023/07/16 07:42:29;;;;;;;3.47;3.17;;;22.10;99.90;;;;;;5027270;28;20202;-67
2023/07/16 07:44:55;;;;;;;3.73;2.73;;;22.00;99.90;;;;;;5022110;28;20439;-67
2023/07/16 07:47:21;;;;;;;3.37;2.57;;;22.00;99.90;;;;;;5022690;28;20187;-67
2023/07/16 07:49:46;;;;;;;4.10;2.67;;;22.60;99.90;;;;;;5027256;28;20222;-68
2023/07/16 07:52:12;;;;;;;3.63;2.47;;;22.90;99.90;;;;;;5026407;28;20507;-68
2023/07/16 07:54:37;;;;;;;2.43;2.20;;;23.00;99.90;;;;;;5030415;28;20190;-67
2023/07/16 07:57:06;;;;;;;5.33;2.23;;;23.10;99.90;;;;;;5030982;28;20623;-67
2023/07/16 07:59:32;;;;;;;4.10;2.00;;;23.40;99.90;;;;;;5030432;28;20194;-67
2023/07/16 08:01:58;;;;;;;2.90;1.93;;;23.50;99.90;;;;;;5028256;28;20452;-68
2023/07/16 08:04:24;;;;;;;2.13;2.03;;;23.70;99.90;;;;;;5028718;28;20730;-67
2023/07/16 08:06:51;;;;;;;2.93;2.63;;;23.70;99.90;;;;;;5025990;28;20444;-68
2023/07/16 08:09:16;;;;;;;3.23;2.37;;;23.60;99.90;;;;;;5052310;28;20450;-68
2023/07/16 08:11:42;;;;;;;3.20;2.30;;;23.40;99.90;;;;;;5024900;28;20491;-68
2023/07/16 08:14:07;;;;;;;3.10;2.13;;;23.20;99.90;;;;;;5029685;28;20186;-67
2023/07/16 08:16:33;;;;;;;3.73;2.77;;;23.10;99.90;;;;;;5029913;28;20297;-68
2023/07/16 08:18:58;;;;;;;7.50;6.90;;;22.90;99.90;;;;;;5030409;28;20193;-67
2023/07/16 08:21:24;;;;;;;3.03;2.10;;;22.80;99.90;;;;;;5024244;28;20195;-68
2023/07/16 08:23:50;;;;;;;2.90;2.40;;;23.30;99.90;;;;;;5030496;28;20189;-68
2023/07/16 08:26:16;;;;;;;3.13;2.47;;;23.60;99.90;;;;;;5022904;28;20208;-68
2023/07/16 08:28:42;;;;;;;2.73;2.17;;;23.70;99.90;;;;;;5029073;28;20189;-68
2023/07/16 08:31:07;;;;;;;3.70;2.60;;;23.60;99.90;;;;;;5026472;28;20441;-67
2023/07/16 08:33:33;;;;;;;4.70;2.10;;;23.60;99.90;;;;;;5028854;28;20648;-68
2023/07/16 08:35:58;;;;;;;2.70;2.33;;;23.40;99.90;;;;;;5023596;28;20198;-67
2023/07/16 08:38:24;;;;;;;5.77;2.83;;;23.40;99.90;;;;;;5030222;28;20178;-68
2023/07/16 08:40:50;;;;;;;5.40;2.60;;;23.40;99.90;;;;;;5025921;28;20195;-68
2023/07/16 08:43:16;;;;;;;3.10;1.93;;;23.60;99.90;;;;;;5026952;28;20208;-68
2023/07/16 08:45:44;;;;;;;3.10;1.80;;;24.40;99.90;;;;;;5028872;28;20433;-68
2023/07/16 08:48:10;;;;;;;2.57;2.33;;;24.50;99.90;;;;;;5028560;28;20178;-68
2023/07/16 08:50:37;;;;;;;3.17;2.20;;;24.30;99.90;;;;;;5027036;28;20445;-68
2023/07/16 08:53:05;;;;;;;2.57;2.33;;;24.10;99.90;;;;;;5019571;28;20458;-68
2023/07/16 08:55:30;;;;;;;4.33;2.40;;;24.10;99.90;;;;;;5029108;28;20449;-67
2023/07/16 08:57:57;;;;;;;2.47;1.73;;;24.00;99.90;;;;;;5030092;28;20498;-68
2023/07/16 09:00:25;;;;;;;3.37;2.57;;;24.10;99.90;;;;;;5026511;28;20178;-68
2023/07/16 09:02:52;;;;;;;3.93;2.00;;;24.40;99.90;;;;;;5028364;28;20453;-68
2023/07/16 09:05:20;;;;;;;3.10;1.90;;;25.00;99.90;;;;;;5029871;28;20867;-68
2023/07/16 09:07:46;;;;;;;4.03;1.83;;;25.10;99.90;;;;;;5027447;28;20473;-67
2023/07/16 09:10:12;;;;;;;2.47;1.90;;;24.90;99.90;;;;;;5029830;28;21024;-68
2023/07/16 09:12:45;;;;;;;5.60;2.57;;;24.70;99.20;;;;;;5024153;28;20545;-68
2023/07/16 09:15:12;;;;;;;4.47;2.23;;;24.50;99.90;;;;;;5024607;28;20181;-68
2023/07/16 09:17:38;;;;;;;4.07;2.40;;;24.60;99.90;;;;;;5025261;28;20460;-68
2023/07/16 09:20:06;;;;;;;4.67;2.40;;;25.30;99.20;;;;;;5028316;28;20855;-69
2023/07/16 09:22:33;;;;;;;2.27;1.90;;;25.60;96.30;;;;;;5028874;28;20973;-70
2023/07/16 09:25:00;;;;;;;4.47;2.30;;;25.50;95.60;;;;;;5026017;28;20500;-67
2023/07/16 09:27:30;;;;;;;4.30;2.10;;;25.40;97.00;;;;;;5028247;28;20489;-67
2023/07/16 09:29:56;;;;;;;2.03;1.80;;;25.60;94.10;;;;;;5028539;28;20464;-67
2023/07/16 09:32:22;;;;;;;3.43;2.20;;;25.60;93.80;;;;;;5027681;28;20968;-68
2023/07/16 09:34:50;;;;;;;2.77;1.93;;;25.70;93.10;;;;;;5022438;28;20239;-68
2023/07/16 09:37:17;;;;;;;2.70;2.50;;;26.10;93.20;;;;;;5019299;28;20206;-68
2023/07/16 09:39:45;;;;;;;3.47;2.20;;;26.50;92.40;;;;;;5027777;28;20516;-68
2023/07/16 09:42:11;;;;;;;3.10;2.90;;;26.40;92.00;;;;;;5026857;28;20494;-68
2023/07/16 09:44:37;;;;;;;2.50;2.27;;;26.40;92.40;;;;;;5027066;28;20477;-68
2023/07/16 09:47:02;;;;;;;5.73;2.40;;;26.80;90.90;;;;;;5025914;28;20845;-68
2023/07/16 09:49:29;;;;;;;3.07;2.67;;;27.30;88.50;;;;;;5027193;28;20247;-69
2023/07/16 09:51:57;;;;;;;2.90;2.33;;;27.40;89.30;;;;;;5019689;28;20205;-68
2023/07/16 09:54:25;;;;;;;3.43;2.50;;;27.60;87.00;;;;;;5023331;28;20988;-68
2023/07/16 09:56:58;;;;;;;4.50;2.13;;;28.30;86.20;;;;;;5027519;28;20464;-68
2023/07/16 09:59:26;;;;;;;2.30;2.10;;;28.60;84.80;;;;;;5027452;28;20433;-68
2023/07/16 10:01:53;;;;;;;3.00;2.30;;;28.10;81.70;;;;;;5029187;28;20456;-67
2023/07/16 10:04:21;;;;;;;2.53;2.33;;;28.80;80.70;;;;;;5025141;28;20433;-67
2023/07/16 10:06:55;;;;;;;4.33;1.63;;;28.90;77.90;;;;;;5027785;28;20508;-68
2023/07/16 10:09:33;;;;;;;1.97;1.60;;;29.20;77.30;;;;;;5025747;28;20444;-69
2023/07/16 10:12:15;;;;;;;2.20;2.00;;;29.30;75.50;;;;;;5023137;28;20460;-68
2023/07/16 10:14:46;;;;;;;2.50;2.30;;;29.40;75.10;;;;;;5021073;28;20437;-68
2023/07/16 10:17:15;;;;;;;2.23;2.03;;;28.40;75.00;;;;;;5026594;28;20465;-68
2023/07/16 10:19:50;;;;;;;4.77;2.30;;;28.20;78.20;;;;;;5027551;28;20796;-68
2023/07/16 10:22:15;;;;;;;2.97;2.40;;;28.70;76.30;;;;;;5025791;28;20448;-70
2023/07/16 10:24:41;;;;;;;2.60;2.27;;;29.10;72.60;;;;;;5024545;28;20429;-68
2023/07/16 10:27:07;;;;;;;2.47;2.27;;;29.50;71.70;;;;;;5023485;28;20711;-68
2023/07/16 10:29:32;;;;;;;3.40;3.10;;;29.40;67.90;;;;;;5026544;28;20186;-68
2023/07/16 10:32:02;;;;;;;3.30;2.10;;;29.10;72.20;;;;;;5028554;28;20202;-68
2023/07/16 10:34:27;;;;;;;2.90;2.17;;;29.20;72.30;;;;;;5027576;28;20274;-68
2023/07/16 10:36:53;;;;;;;3.10;2.20;;;30.00;69.40;;;;;;5025534;28;20548;-68
2023/07/16 10:39:18;;;;;;;2.80;2.37;;;31.00;65.00;;;;;;5025518;28;20228;-68
2023/07/16 10:41:44;;;;;;;2.83;2.43;;;31.00;60.30;;;;;;5028216;28;20254;-68
2023/07/16 10:44:14;;;;;;;3.10;2.80;;;31.20;63.00;;;;;;5028143;28;20205;-68
2023/07/16 10:46:42;;;;;;;2.83;2.33;;;31.70;58.60;;;;;;5026070;28;20215;-69
2023/07/16 10:49:08;;;;;;;3.53;2.20;;;31.20;58.00;;;;;;5025573;28;20444;-68
2023/07/16 10:51:33;;;;;;;2.83;2.63;;;30.20;59.20;;;;;;5027941;28;20432;-69
2023/07/16 10:53:59;;;;;;;3.50;2.40;;;30.30;60.00;;;;;;5016972;28;21170;-68
2023/07/16 10:56:25;;;;;;;2.53;2.40;;;31.20;57.80;;;;;;5025690;28;20220;-68
2023/07/16 10:58:51;;;;;;;2.67;2.47;;;32.40;54.90;;;;;;5021828;28;20250;-68
2023/07/16 11:01:16;;;;;;;3.27;2.63;;;32.20;54.60;;;;;;5028112;28;20478;-69
2023/07/16 11:03:42;;;;;;;4.23;2.00;;;32.70;54.20;;;;;;5026549;28;20190;-68
2023/07/16 11:06:11;;;;;;;2.90;2.53;;;32.70;54.10;;;;;;5026365;28;20247;-68
2023/07/16 11:08:37;;;;;;;2.87;2.53;;;32.80;52.80;;;;;;5027400;28;20181;-69
2023/07/16 11:11:03;;;;;;;3.63;3.17;;;32.40;53.50;;;;;;5072136;22;21720;-68
2023/07/16 11:13:30;;;;;;;2.80;2.60;;;33.10;52.70;;;;;;5090229;28;20176;-70
2023/07/16 11:15:56;;;;;;;4.07;2.70;;;33.20;52.40;;;;;;5090586;28;20204;-70
2023/07/16 11:18:24;;;;;;;4.50;2.87;;;34.30;50.80;;;;;;5071889;28;20438;-71
2023/07/16 11:20:53;;;;;;;2.90;2.70;;;33.80;48.90;;;;;;5068111;28;20284;-70
2023/07/16 11:23:19;;;;;;;4.17;2.70;;;34.80;49.30;;;;;;5084103;28;20492;-70
2023/07/16 11:25:48;;;;;;;2.47;2.27;;;35.80;47.10;;;;;;5074142;28;20431;-70
2023/07/16 11:28:14;;;;;;;2.93;2.63;;;35.20;45.50;;;;;;5069765;28;20435;-71
2023/07/16 11:30:40;;;;;;;3.33;3.03;;;35.60;45.70;;;;;;5079521;28;20456;-70
2023/07/16 11:33:11;;;;;;;3.50;2.50;;;34.70;44.50;;;;;;5079297;28;20184;-70
2023/07/16 11:35:37;;;;;;;3.23;2.93;;;33.60;45.80;;;;;;5077976;28;20181;-69
2023/07/16 11:38:05;;;;;;;3.10;2.80;;;31.50;49.00;;;;;;5077872;28;20926;-70
2023/07/16 11:40:33;;;;;;;5.90;2.80;;;30.50;50.30;;;;;;5079762;28;20982;-70
2023/07/16 11:43:10;;;;;;;5.90;4.03;;;30.60;51.40;;;;;;5078083;28;20814;-70
2023/07/16 11:45:36;;;;;;;5.10;2.77;;;31.50;50.10;;;;;;5079853;28;20491;-70
2023/07/16 11:48:03;;;;;;;2.70;2.50;;;32.90;49.30;;;;;;5069776;28;20439;-70
2023/07/16 11:50:29;;;;;;;2.93;2.73;;;34.50;46.50;;;;;;5059937;28;20235;-70
2023/07/16 11:53:00;;;;;;;3.10;2.83;;;34.70;45.30;;;;;;5075735;28;20446;-70
2023/07/16 11:55:26;;;;;;;3.97;3.60;;;35.10;44.20;;;;;;5078471;28;20427;-70
2023/07/16 11:57:51;;;;;;;2.53;2.27;;;34.20;45.50;;;;;;5075715;28;20970;-70
2023/07/16 12:00:17;;;;;;;3.63;3.00;;;33.00;45.20;;;;;;5084149;28;20249;-69
2023/07/16 12:02:43;;;;;;;3.70;3.07;;;32.90;46.20;;;;;;5049661;28;20177;-69
2023/07/16 12:05:09;;;;;;;2.70;2.10;;;32.20;47.30;;;;;;5072774;28;20646;-69
2023/07/16 12:07:38;;;;;;;2.70;2.43;;;31.80;48.50;;;;;;5074669;28;20180;-69
2023/07/16 12:10:06;;;;;;;3.13;2.27;;;31.80;48.50;;;;;;5086475;28;20227;-69
2023/07/16 12:12:32;;;;;;;3.43;2.70;;;32.40;47.90;;;;;;5081512;28;20439;-69
2023/07/16 12:14:57;;;;;;;3.13;2.50;;;33.30;47.60;;;;;;5086927;28;20442;-69
2023/07/16 12:17:23;;;;;;;2.70;2.50;;;33.80;46.20;;;;;;5060788;28;20465;-69
2023/07/16 12:19:48;;;;;;;2.67;2.47;;;33.60;44.90;;;;;;5071163;28;20177;-70
2023/07/16 12:22:17;;;;;;;2.57;2.37;;;32.80;46.10;;;;;;5071490;28;20176;-69
2023/07/16 12:24:43;;;;;;;3.03;2.70;;;32.50;46.70;;;;;;5074743;28;20177;-70
2023/07/16 12:27:08;;;;;;;3.60;3.30;;;32.70;46.80;;;;;;5080904;28;20466;-70
2023/07/16 12:29:34;;;;;;;3.33;2.30;;;35.40;44.70;;;;;;5082814;28;20188;-70
2023/07/16 12:31:59;;;;;;;3.40;3.10;;;37.30;42.10;;;;;;5078555;28;20195;-70
2023/07/16 12:34:25;;;;;;;6.57;2.40;;;34.80;42.90;;;;;;5075340;28;20185;-69
2023/07/16 12:36:51;;;;;;;2.67;2.37;;;32.80;44.90;;;;;;5083494;28;20228;-70
2023/07/16 12:39:16;;;;;;;2.87;2.30;;;31.40;47.10;;;;;;5070008;28;20265;-70
2023/07/16 12:41:43;;;;;;;2.93;2.73;;;30.30;49.10;;;;;;5077035;28;20188;-70